Date,TemperatureHighF,TemperatureAvgF,TemperatureLowF,DewpointHighF,DewpointAvgF,DewpointLowF,HumidityHigh,HumidityAvg,HumidityLow,PressureMaxIn,PressureMinIn,WindSpeedMaxMPH,WindSpeedAvgMPH,GustSpeedMaxMPH,PrecipitationSumIn
2013-1-1,48.3,39.9,31.8,24.9,20.1,15.4,61,46,31,0.00,0.00,9,2,9,0.12
2013-1-2,48.0,42.4,36.5,19.3,16.5,13.5,49,35,29,0.00,0.00,13,2,13,0.00
2013-1-3,37.0,31.5,27.1,25.2,21.4,18.0,83,67,47,0.00,0.00,40,13,40,0.00
2013-1-4,44.0,35.2,27.3,28.3,23.0,19.8,74,61,51,0.00,0.00,20,3,20,0.02
2013-1-5,39.3,34.7,30.7,25.0,22.4,19.9,67,61,55,0.00,0.00,6,1,6,0.00
2013-1-6,48.0,40.6,33.6,26.1,23.2,19.0,62,50,41,0.00,0.00,27,6,27,0.00
2013-1-7,52.3,45.6,40.4,31.0,27.3,22.8,56,49,42,0.00,0.00,47,11,47,0.00
2013-1-8,53.2,48.3,44.0,30.4,25.1,17.2,56,41,29,0.00,0.00,27,4,27,0.00
2013-1-9,53.7,48.3,41.9,27.7,23.5,16.1,49,38,29,0.00,0.00,28,7,28,0.00
2013-1-10,57.3,49.9,40.1,30.7,25.1,17.2,44,38,35,0.00,0.00,12,2,12,0.00
2013-1-11,52.5,45.7,37.5,27.8,20.3,9.3,51,36,30,0.00,0.00,25,8,25,0.00
2013-1-12,39.3,34.5,27.5,10.5,7.5,3.4,36,32,27,0.00,0.00,23,6,23,0.00
2013-1-13,45.1,37.9,28.0,11.6,8.0,1.6,36,29,24,0.00,0.00,17,3,17,0.00
2013-1-14,43.8,34.8,29.6,19.5,11.5,1.1,56,39,26,0.00,0.00,29,10,29,0.00
2013-1-15,35.7,31.4,26.7,10.1,4.2,-1.0,46,31,22,0.00,0.00,25,5,25,0.00
2013-1-16,45.6,36.0,26.4,11.2,5.2,-1.0,32,27,24,0.00,0.00,15,4,15,0.00
2013-1-17,53.7,45.3,37.7,23.0,15.8,6.9,38,30,26,0.00,0.00,28,6,28,0.00
2013-1-18,58.2,48.3,43.3,23.6,21.3,19.7,39,34,25,0.00,0.00,25,7,25,0.00
2013-1-19,54.5,51.8,49.6,20.2,18.8,17.8,29,27,25,0.00,0.00,7,2,7,0.00
2013-1-20,60.4,52.7,44.7,21.8,18.2,14.9,31,26,19,0.00,0.00,8,2,8,0.00
2013-1-21,61.3,52.8,45.1,20.0,17.1,13.1,28,24,20,0.00,0.00,9,1,9,0.00
2013-1-22,62.2,54.4,49.2,21.3,17.8,14.3,27,24,19,0.00,0.00,9,1,9,0.00
2013-1-23,65.6,56.4,50.3,26.8,21.6,16.6,31,26,21,0.00,0.00,9,2,9,0.00
2013-1-24,68.9,59.5,52.3,32.5,27.4,21.9,38,29,25,0.00,0.00,15,2,15,0.00
2013-1-25,64.7,58.7,53.2,41.3,37.3,32.1,50,45,38,0.00,0.00,10,2,10,0.00
2013-1-26,64.9,59.2,54.5,45.7,41.9,38.2,62,53,47,0.00,0.00,15,2,15,0.02
2013-1-27,60.9,55.1,50.7,42.8,40.0,36.5,70,57,45,0.00,0.00,17,3,17,0.00
2013-1-28,63.3,54.5,46.2,37.4,34.6,29.7,59,48,34,0.00,0.00,23,5,23,0.00
2013-1-29,45.1,37.2,33.8,30.9,19.7,12.2,68,50,33,0.00,0.00,38,12,38,0.00
2013-1-30,46.0,38.5,31.6,20.0,14.6,9.2,58,39,23,0.00,0.00,22,5,22,0.00
2013-1-31,57.0,47.2,38.8,24.1,18.7,14.3,38,32,26,0.00,0.00,11,1,11,0.00
2013-2-1,58.8,51.3,42.6,23.2,19.9,15.8,34,29,23,0.00,0.00,9,1,9,0.00
2013-2-2,64.7,53.8,45.1,24.8,19.9,16.2,33,27,20,0.00,0.00,18,3,18,0.00
2013-2-3,63.5,55.1,50.5,31.2,22.2,17.0,42,28,23,0.00,0.00,26,6,26,0.00
2013-2-4,61.5,54.6,48.7,33.6,30.2,26.1,44,39,35,0.00,0.00,15,2,15,0.00
2013-2-5,63.5,55.3,47.3,33.2,30.9,28.0,51,40,28,0.00,0.00,11,2,11,0.00
2013-2-6,63.6,55.6,50.1,32.2,29.1,24.9,44,37,27,0.00,0.00,17,4,17,0.00
2013-2-7,63.6,54.5,46.9,31.2,27.5,22.2,48,36,25,0.00,0.00,18,3,18,0.00
2013-2-8,67.1,55.5,45.6,30.1,24.8,16.2,43,31,19,0.00,0.00,37,12,37,0.00
2013-2-9,57.0,49.5,36.6,24.0,18.6,12.3,41,30,21,0.00,0.00,37,8,37,0.00
2013-2-10,51.4,42.0,33.0,19.0,15.8,13.3,50,36,23,0.00,0.00,20,6,20,0.00
2013-2-11,57.0,48.5,40.1,23.9,15.9,11.3,52,27,22,0.00,0.00,17,3,17,0.00
2013-2-12,47.1,39.9,32.1,27.8,17.9,9.2,69,44,22,0.00,0.00,19,5,19,0.00
2013-2-13,52.1,44.9,38.1,16.3,13.9,11.4,35,29,22,0.00,0.00,14,2,14,0.00
2013-2-14,57.3,49.0,40.2,21.4,16.2,10.2,31,27,23,0.00,0.00,16,2,16,0.00
2013-2-15,55.9,48.5,39.9,27.8,22.2,15.7,49,36,25,0.00,0.00,31,6,31,0.00
2013-2-16,60.0,51.0,42.4,23.4,19.5,14.3,38,29,20,0.00,0.00,10,1,10,0.00
2013-2-17,64.5,54.9,44.4,21.1,16.2,9.9,32,22,14,0.00,0.00,15,2,15,0.00
2013-2-18,60.4,52.1,42.9,16.4,13.0,10.8,27,21,16,0.00,0.00,27,7,27,0.00
2013-2-19,58.2,53.2,48.2,40.1,24.7,10.7,64,37,19,0.00,0.00,27,7,27,0.20
2013-2-20,57.7,48.1,34.1,36.3,27.4,20.5,72,47,26,0.00,0.00,40,10,40,0.00
2013-2-21,47.4,37.8,30.3,22.8,20.5,17.6,65,50,35,0.00,0.00,25,8,25,0.00
2013-2-22,52.1,43.9,36.3,24.2,21.4,18.8,51,41,29,0.00,0.00,24,6,24,0.00
2013-2-23,58.2,47.9,36.6,25.3,19.5,11.7,46,33,26,0.00,0.00,16,3,16,0.00
2013-2-24,58.1,44.9,30.5,23.9,17.9,8.3,51,35,21,0.00,0.00,44,9,44,0.00
2013-2-25,50.3,39.6,28.4,16.3,12.5,9.3,47,34,23,0.00,0.00,17,4,17,0.00
2013-2-26,61.5,48.7,39.5,19.2,11.9,4.3,31,23,14,0.00,0.00,25,4,25,0.00
2013-2-27,43.5,39.4,35.9,5.1,3.1,1.6,24,21,20,0.00,0.00,22,6,22,0.00
2013-3-5,53.6,52.7,51.4,25.2,24.5,23.9,34,33,32,0.00,0.00,25,15,25,0.00
2013-3-6,74.4,60.6,48.9,33.3,27.3,22.4,35,29,21,0.00,0.00,33,10,33,0.00
2013-3-7,76.1,65.9,57.5,32.4,27.2,24.4,29,24,16,0.00,0.00,16,3,16,0.00
2013-3-8,66.7,60.1,55.2,44.9,34.4,25.1,62,39,24,0.00,0.00,30,4,30,0.00
2013-3-9,55.2,45.5,39.0,34.8,26.2,21.5,64,48,29,0.00,0.00,39,12,39,0.00
2013-3-10,56.8,47.0,37.4,27.9,24.7,20.9,60,43,29,0.00,0.00,19,3,19,0.00
2013-3-11,64.5,54.1,45.1,26.8,22.5,18.9,37,30,21,0.00,0.00,15,3,15,0.00
2013-3-12,72.6,58.6,50.1,28.0,22.3,17.9,31,25,18,0.00,0.00,23,4,23,0.00
2013-3-13,74.8,61.3,51.4,30.7,25.0,20.4,34,26,16,0.00,0.00,38,9,38,0.00
2013-3-14,79.8,66.4,57.0,34.1,22.3,17.4,23,19,14,0.00,0.00,18,5,18,0.00
2013-3-15,81.6,68.3,57.3,27.8,21.8,16.6,22,17,12,0.00,0.00,13,2,13,0.00
2013-3-16,80.2,68.7,58.8,27.7,21.5,17.5,22,17,11,0.00,0.00,28,4,28,0.00
2013-3-17,74.8,64.4,55.5,27.5,21.3,16.0,25,19,15,0.00,0.00,37,8,37,0.00
2013-3-18,74.8,63.3,51.9,27.6,21.9,17.0,27,21,15,0.00,0.00,19,5,19,0.00
2013-3-19,72.5,63.5,55.2,28.1,22.7,17.6,25,21,17,0.00,0.00,26,6,26,0.00
2013-3-20,70.8,60.4,50.1,36.0,29.8,22.4,44,32,25,0.00,0.00,37,8,37,0.00
2013-3-21,75.7,65.1,56.4,31.4,27.3,25.2,31,24,16,0.00,0.00,40,8,40,0.00
2013-3-22,74.6,64.6,55.0,32.8,27.7,21.3,32,25,21,0.00,0.00,24,7,24,0.00
2013-3-23,68.3,59.9,52.7,28.0,20.4,10.7,34,23,13,0.00,0.00,40,11,40,0.00
2013-3-24,65.1,52.2,39.0,19.2,9.9,-2.0,30,18,14,0.00,0.00,26,7,26,0.00
2013-3-25,61.8,52.2,40.8,19.1,13.3,7.7,26,21,18,0.00,0.00,31,10,31,0.00
2013-3-26,71.7,55.1,42.0,28.3,19.5,13.0,33,25,18,0.00,0.00,35,13,35,0.00
2013-3-27,75.9,64.9,56.3,33.0,26.6,20.8,34,24,19,0.00,0.00,22,4,22,0.00
2013-3-28,79.8,68.1,58.1,36.8,27.9,19.6,26,22,18,0.00,0.00,17,3,17,0.00
2013-3-29,79.8,68.4,59.7,32.6,26.3,20.6,31,21,15,0.00,0.00,22,4,22,0.00
2013-3-30,78.8,68.0,57.0,31.2,24.7,18.9,24,20,16,0.00,0.00,22,4,22,0.00
2013-3-31,80.4,69.5,59.5,35.6,29.6,22.1,32,23,17,0.00,0.00,13,3,13,0.00
2013-4-1,82.4,70.0,58.8,32.9,27.1,22.1,28,21,12,0.00,0.00,17,4,17,0.00
2013-4-2,79.5,66.8,58.8,31.6,24.7,16.1,28,21,14,0.00,0.00,39,7,39,0.00
2013-4-3,72.1,60.8,48.9,36.4,29.6,15.4,51,32,17,0.00,0.00,18,4,18,0.00
2013-4-4,80.4,68.6,52.8,36.8,28.6,22.1,38,24,15,0.00,0.00,19,4,19,0.00
2013-4-5,83.8,71.0,60.6,34.9,26.3,18.2,31,19,12,0.00,0.00,30,9,30,0.00
2013-4-6,80.2,68.6,59.1,32.7,28.3,24.3,29,22,16,0.00,0.00,22,5,22,0.00
2013-4-7,81.5,69.4,57.7,34.5,28.2,23.3,29,22,16,0.00,0.00,20,5,20,0.00
2013-4-8,82.5,69.3,59.0,35.8,28.2,23.5,29,22,14,0.00,0.00,28,7,28,0.00
2013-4-9,66.7,55.4,47.6,32.5,26.2,20.4,53,33,23,0.00,0.00,32,9,32,0.00
2013-4-10,62.4,53.7,45.6,31.1,25.3,21.8,46,34,22,0.00,0.00,25,6,25,0.00
2013-4-11,75.3,57.1,44.9,28.6,22.1,18.9,36,27,17,0.00,0.00,18,5,18,0.00
2013-4-12,80.9,66.5,55.9,34.1,25.2,17.6,29,21,15,0.00,0.00,14,3,14,0.00
2013-4-13,79.7,69.9,61.5,31.9,26.7,22.8,26,20,15,0.00,0.00,24,5,24,0.00
2013-4-14,78.9,67.5,57.0,33.3,27.3,22.3,29,22,17,0.00,0.00,31,8,31,0.00
2013-4-15,82.0,69.2,57.7,31.3,27.8,24.7,34,22,15,0.00,0.00,23,6,23,0.00
2013-4-16,83.8,70.5,59.5,34.1,27.0,22.7,29,20,12,0.00,0.00,21,5,21,0.00
2013-4-17,77.5,65.1,51.9,32.1,25.6,16.4,32,23,15,0.00,0.00,30,9,30,0.00
2013-4-18,64.4,53.1,44.0,21.1,16.9,8.4,36,25,12,0.00,0.00,28,8,28,0.00
2013-4-19,73.7,56.3,43.3,23.6,12.1,5.1,26,17,11,0.00,0.00,32,8,32,0.00
2013-4-20,77.3,64.5,53.7,20.7,15.3,7.8,19,15,11,0.00,0.00,27,5,27,0.00
2013-4-21,84.0,69.5,57.5,29.8,23.1,16.6,27,18,13,0.00,0.00,20,3,20,0.00
2013-4-22,87.0,72.4,59.9,30.3,22.7,16.8,21,16,11,0.00,0.00,23,4,23,0.00
2013-4-23,84.2,71.1,58.8,29.0,23.3,17.1,29,17,11,0.00,0.00,29,6,29,0.00
2013-4-24,79.3,59.9,45.3,35.6,29.1,23.9,43,32,20,0.00,0.00,37,12,37,0.00
2013-4-25,86.0,68.1,55.9,46.1,34.0,21.8,41,30,14,0.00,0.00,36,12,36,0.00
2013-4-26,84.0,68.8,57.7,29.2,23.9,19.2,27,19,11,0.00,0.00,21,6,21,0.00
2013-4-27,86.7,71.7,60.9,35.0,26.4,18.6,27,19,12,0.00,0.00,19,6,19,0.00
2013-4-28,89.4,74.8,63.3,42.9,33.9,25.9,35,23,14,0.00,0.00,114,6,114,0.00
2013-4-29,92.8,76.2,64.2,35.6,28.6,21.0,29,18,10,0.00,0.00,17,3,17,0.00
2013-4-30,90.3,76.8,64.0,30.6,25.0,18.5,20,15,11,0.00,0.00,21,5,21,0.00
2013-5-1,91.4,75.7,63.8,33.6,26.4,21.3,23,16,11,0.00,0.00,23,5,23,0.00
2013-5-2,71.9,56.9,46.2,33.7,26.5,18.6,47,32,15,0.00,0.00,34,13,34,0.10
2013-5-3,74.1,56.1,41.7,29.4,21.6,16.0,41,27,16,0.00,0.00,30,10,30,0.00
2013-5-4,87.2,69.1,56.8,38.0,26.0,15.8,25,20,15,0.00,0.00,23,6,23,0.00
2013-5-5,88.3,71.7,61.3,41.6,30.1,21.9,28,21,19,0.00,0.00,29,11,29,0.00
2013-5-6,83.4,71.3,62.7,39.7,33.5,27.4,37,26,17,0.00,0.00,25,7,25,0.00
2013-5-7,82.5,70.6,59.3,39.0,31.8,25.5,30,24,17,0.00,0.00,18,5,18,0.00
2013-5-8,80.4,68.8,58.8,34.3,29.5,24.6,33,24,16,0.00,0.00,21,6,21,0.00
2013-5-9,83.1,69.8,58.8,35.3,29.7,23.4,32,23,16,0.00,0.00,18,4,18,0.00
2013-5-10,80.7,65.1,55.9,44.7,35.8,28.0,60,35,22,0.00,0.00,39,8,39,0.00
2013-5-11,78.9,64.6,55.0,46.3,40.2,33.7,53,42,23,0.00,0.00,25,7,25,0.00
2013-5-12,82.2,69.0,58.8,42.9,37.8,32.7,44,33,22,0.00,0.00,16,4,16,0.00
2013-5-13,87.2,71.6,58.8,40.0,35.4,31.2,40,28,16,0.00,0.00,21,7,21,0.00
2013-5-14,91.0,74.2,63.6,46.2,39.5,34.9,40,30,16,0.00,0.00,13,3,13,0.00
2013-5-15,89.4,76.5,65.3,45.5,36.3,32.5,41,24,16,0.00,0.00,23,6,23,0.00
2013-5-16,94.4,79.1,67.2,39.0,33.4,29.9,26,20,13,0.00,0.00,28,6,28,0.00
2013-5-17,97.1,80.9,69.4,41.3,32.3,25.3,21,17,14,0.00,0.00,17,4,17,0.00
2013-5-18,90.3,77.1,66.0,38.7,29.7,24.8,23,18,11,0.00,0.00,26,6,26,0.00
2013-5-19,90.5,74.9,62.4,35.3,29.4,24.5,26,19,13,0.00,0.00,25,6,25,0.00
2013-5-20,90.1,75.1,62.7,36.8,31.2,26.4,28,21,13,0.00,0.00,23,7,23,0.00
2013-5-21,90.6,74.4,61.5,36.2,29.9,23.2,29,20,13,0.00,0.00,22,4,22,0.00
2013-5-22,94.2,79.9,67.2,37.7,29.2,23.9,22,16,11,0.00,0.00,14,3,14,0.00
2013-5-23,95.1,81.4,70.8,47.6,35.0,25.9,42,20,14,0.00,0.00,33,5,33,0.00
2013-5-24,99.3,80.9,66.5,49.5,44.7,40.1,48,30,17,0.00,0.00,25,6,25,0.00
2013-5-25,99.5,82.7,69.6,53.7,44.2,29.5,52,30,12,0.00,0.00,25,6,25,0.00
2013-5-26,95.1,81.5,68.5,44.3,32.3,21.7,25,17,12,0.00,0.00,21,3,21,0.00
2013-5-27,94.1,80.3,69.0,35.2,26.6,20.6,18,14,11,0.00,0.00,12,4,12,0.00
2013-5-28,94.6,80.3,68.1,36.6,26.8,20.7,19,14,10,0.00,0.00,24,4,24,0.00
2013-5-29,87.6,76.4,66.0,37.4,31.6,19.6,27,20,12,0.00,0.00,25,7,25,0.00
2013-5-30,94.2,78.6,66.0,46.5,37.7,30.9,30,23,15,0.00,0.00,23,4,23,0.00
2013-5-31,98.4,81.8,68.3,45.6,38.0,30.5,29,21,15,0.00,0.00,21,5,21,0.00
2013-6-1,103.6,86.4,75.7,44.1,35.5,24.2,28,17,12,0.00,0.00,38,8,38,0.00
2013-6-2,96.4,78.6,68.5,58.1,50.0,42.7,51,38,26,0.00,0.00,36,14,36,0.00
2013-6-3,99.1,80.3,65.1,53.9,46.6,30.3,60,36,12,0.00,0.00,38,9,38,0.00
2013-6-4,99.5,84.4,70.5,46.0,37.5,29.8,25,19,14,0.00,0.00,23,3,23,0.00
2013-6-5,100.0,85.1,73.0,42.3,37.2,29.3,28,19,13,0.00,0.00,19,4,19,0.00
2013-6-6,100.5,82.3,69.4,52.0,43.9,26.5,41,27,14,0.00,0.00,32,9,32,0.00
2013-6-7,97.5,78.3,67.6,58.7,51.0,38.7,62,41,21,0.00,0.00,26,10,26,0.02
2013-6-8,103.8,83.4,69.9,52.4,45.9,33.8,44,29,14,0.00,0.00,31,6,31,0.00
2013-6-9,102.0,86.5,72.1,58.1,45.2,31.4,35,24,16,0.00,0.00,30,6,30,0.00
2013-6-10,108.6,89.1,76.2,56.3,50.2,41.3,37,28,16,0.00,0.00,29,8,29,0.00
2013-6-11,108.8,90.4,77.3,54.0,46.5,36.9,32,23,14,0.00,0.00,26,8,26,0.00
2013-6-12,108.1,89.6,77.0,55.0,47.2,36.2,38,24,14,0.00,0.00,25,6,25,0.00
2013-6-13,101.8,85.2,74.8,60.4,54.9,48.0,51,37,20,0.00,0.00,34,10,34,0.00
2013-6-14,100.2,80.9,70.8,59.2,54.0,45.2,53,41,24,0.00,0.00,28,6,28,0.02
2013-6-15,103.2,84.7,71.7,57.4,52.8,46.3,55,36,18,0.00,0.00,19,4,19,0.00
2013-6-16,101.8,87.6,76.6,56.4,50.5,45.2,39,29,20,0.00,0.00,12,3,12,0.00
2013-6-17,101.8,86.2,76.4,65.0,52.7,48.3,53,33,20,0.00,0.00,33,5,33,0.10
2013-6-18,101.3,83.8,70.3,58.7,54.7,50.5,55,39,21,0.00,0.00,28,10,28,0.00
2013-6-19,103.1,89.1,77.1,58.2,51.7,44.7,47,30,15,0.00,0.00,24,7,24,0.00
2013-6-20,101.8,87.2,77.5,55.9,49.3,45.5,38,28,18,0.00,0.00,29,7,29,0.00
2013-6-21,101.3,85.4,74.4,55.9,50.8,39.3,44,32,19,0.00,0.00,27,6,27,0.00
2013-6-22,98.2,86.9,76.6,51.4,40.4,28.9,30,20,16,0.00,0.00,18,4,18,0.00
2013-6-23,103.6,87.5,75.2,49.7,43.7,32.1,38,23,15,0.00,0.00,20,4,20,0.00
2013-6-24,101.8,87.5,76.6,51.7,44.0,37.5,29,22,18,0.00,0.00,18,3,18,0.00
2013-6-25,100.5,86.7,74.8,49.9,40.1,30.8,30,20,15,0.00,0.00,19,4,19,0.00
2013-6-26,103.2,87.5,73.5,39.2,32.2,25.3,18,14,10,0.00,0.00,22,5,22,0.00
2013-6-27,109.2,89.9,77.3,44.8,33.9,24.5,21,14,11,0.00,0.00,19,5,19,0.00
2013-6-28,101.8,89.1,80.9,51.6,45.3,41.6,31,22,18,0.00,0.00,25,7,25,0.00
2013-6-29,104.5,89.9,78.0,52.1,47.3,43.1,31,24,16,0.00,0.00,22,4,22,0.00
2013-6-30,101.8,87.2,77.5,55.1,50.7,44.7,44,29,20,0.00,0.00,26,9,26,0.00
2013-7-1,87.6,75.7,67.1,58.8,54.8,49.3,68,50,33,0.00,0.00,47,10,47,0.24
2013-7-2,91.0,75.9,66.2,56.2,51.0,46.0,66,44,28,0.00,0.00,28,7,28,0.00
2013-7-3,97.7,80.3,69.4,56.0,51.4,47.4,52,38,24,0.00,0.00,26,5,26,0.00
2013-7-4,89.4,77.6,71.9,55.7,51.1,48.5,46,40,29,0.00,0.00,8,1,8,0.00
2013-7-5,103.8,86.5,72.5,59.5,52.8,47.7,45,33,20,0.00,0.00,14,2,14,0.00
2013-7-6,103.8,85.6,74.3,59.2,55.3,51.0,52,37,22,0.00,0.00,13,3,13,0.00
2013-7-7,103.4,88.4,78.9,60.3,54.2,48.9,42,32,23,0.00,0.00,24,8,24,0.00
2013-7-8,100.0,85.6,77.5,58.0,53.4,50.7,43,34,23,0.00,0.00,23,7,23,0.00
2013-7-9,101.1,87.0,76.2,59.5,55.8,52.4,49,36,22,0.00,0.00,22,6,22,0.00
2013-7-10,102.5,86.2,74.3,61.6,57.5,53.1,53,39,24,0.00,0.00,16,6,16,0.00
2013-7-11,96.9,84.8,75.9,60.0,56.4,52.4,55,39,28,0.00,0.00,21,4,21,0.00
2013-7-12,101.4,84.2,75.0,61.4,56.1,51.0,54,39,24,0.00,0.00,20,4,20,0.00
2013-7-13,100.7,85.5,73.5,61.0,55.3,47.3,53,37,25,0.00,0.00,18,4,18,0.00
2013-7-14,104.9,88.3,75.3,61.2,55.6,48.1,50,34,22,0.00,0.00,26,5,26,0.00
2013-7-15,85.6,75.7,66.9,60.3,54.7,48.8,60,49,38,0.00,0.00,38,11,38,0.00
2013-7-16,89.7,75.3,64.9,54.4,51.7,49.2,62,46,27,0.00,0.00,22,6,22,0.00
2013-7-17,79.7,72.0,66.0,58.7,54.1,50.5,71,54,44,0.00,0.00,25,10,25,0.02
2013-7-18,73.9,66.4,63.6,62.8,59.0,56.6,81,77,66,0.00,0.00,23,5,23,0.67
2013-7-19,83.4,72.7,65.4,63.4,60.6,58.5,80,67,48,0.00,0.00,19,5,19,0.00
2013-7-20,92.8,77.0,68.1,64.1,60.6,57.6,74,59,35,0.00,0.00,19,6,19,0.00
2013-7-21,96.6,79.8,70.7,61.6,58.2,55.5,62,49,27,0.00,0.00,14,3,14,0.00
2013-7-22,91.9,78.5,70.5,63.8,59.4,56.4,66,53,32,0.00,0.00,15,2,15,0.04
2013-7-23,95.5,76.7,69.6,69.9,60.1,55.5,65,57,37,0.00,0.00,23,2,23,0.16
2013-7-24,97.3,78.5,68.5,65.3,61.8,58.0,77,59,32,0.00,0.00,33,4,33,0.59
2013-7-25,92.4,77.4,65.6,65.6,60.8,56.2,80,58,40,0.00,0.00,22,4,22,0.08
2013-7-26,91.0,78.3,71.7,66.8,62.0,59.0,76,58,39,0.00,0.00,16,2,16,0.08
2013-7-27,84.0,75.3,66.3,64.5,60.7,55.4,78,61,49,0.00,0.00,114,6,114,0.00
2013-7-28,88.3,75.9,67.4,64.6,60.7,57.6,76,61,42,0.00,0.00,12,2,12,0.08
2013-7-29,97.5,82.0,70.7,61.6,57.5,52.9,62,45,26,0.00,0.00,14,2,14,0.00
2013-7-30,98.7,82.6,72.3,62.2,57.0,50.5,57,43,27,0.00,0.00,28,3,28,0.00
2013-7-31,99.3,84.0,74.1,61.6,56.2,51.6,53,40,24,0.00,0.00,13,2,13,0.00
2013-8-1,99.8,85.2,75.3,60.0,56.7,53.8,57,39,25,0.00,0.00,19,4,19,0.00
2013-8-2,97.5,84.4,74.8,66.5,58.8,54.4,56,43,29,0.00,0.00,114,2,114,0.04
2013-8-3,96.0,83.8,74.4,60.2,57.3,53.8,57,42,29,0.00,0.00,11,2,11,0.00
2013-8-4,101.3,86.2,76.8,61.0,55.7,51.3,48,36,25,0.00,0.00,12,2,12,0.00
2013-8-5,99.1,83.5,73.4,60.0,55.5,49.2,57,39,25,0.00,0.00,16,4,16,0.00
2013-8-6,93.7,80.8,71.4,58.2,55.5,52.4,57,43,27,0.00,0.00,15,3,15,0.00
2013-8-7,91.2,78.5,70.7,57.1,54.9,50.8,57,45,30,0.00,0.00,20,4,20,0.00
2013-8-8,94.2,80.6,69.6,54.4,51.2,44.9,52,37,24,0.00,0.00,19,3,19,0.00
2013-8-9,99.6,85.1,74.8,55.2,48.7,42.1,37,29,21,0.00,0.00,18,4,18,0.00
2013-8-10,85.2,77.5,72.3,60.2,55.0,50.0,59,46,34,0.00,0.00,25,8,25,0.00
2013-8-11,91.2,78.5,66.7,61.9,57.2,54.3,73,50,31,0.00,0.00,29,7,29,0.00
2013-8-12,93.5,82.4,73.4,61.3,57.1,54.5,53,43,31,0.00,0.00,23,6,23,0.00
2013-8-13,92.8,82.7,74.4,62.9,57.7,51.3,57,44,32,0.00,0.00,14,5,14,0.00
2013-8-14,95.7,82.0,71.2,63.2,57.1,53.0,71,44,30,0.00,0.00,24,7,24,0.35
2013-8-15,93.3,78.3,67.1,61.9,58.1,51.0,77,52,31,0.00,0.00,14,2,14,0.10
2013-8-16,94.8,81.6,72.1,61.7,56.3,51.3,57,43,27,0.00,0.00,21,2,21,0.00
2013-8-17,97.8,84.4,73.7,55.6,52.2,47.9,47,34,23,0.00,0.00,15,2,15,0.00
2013-8-18,96.6,83.8,75.9,63.1,52.0,46.8,44,34,24,0.00,0.00,24,5,24,0.08
2013-8-19,93.3,80.2,73.2,61.4,53.8,50.3,56,41,28,0.00,0.00,18,3,18,0.24
2013-8-20,93.3,81.4,73.0,56.8,52.8,49.6,50,38,27,0.00,0.00,12,2,12,0.00
2013-8-21,94.8,81.3,70.8,57.5,52.1,40.9,57,38,23,0.00,0.00,18,4,18,0.00
2013-8-22,92.4,80.8,72.3,55.1,50.0,41.2,49,35,21,0.00,0.00,22,7,22,0.00
2013-8-23,92.8,79.2,71.2,61.1,54.0,51.3,51,43,27,0.00,0.00,20,8,20,0.02
2013-8-24,88.5,77.9,69.6,61.3,56.0,51.7,59,48,36,0.00,0.00,21,8,21,0.00
2013-8-25,95.1,81.5,72.6,59.3,55.7,52.9,54,42,27,0.00,0.00,22,6,22,0.00
2013-8-26,90.6,80.3,72.1,58.1,54.4,51.9,52,42,30,0.00,0.00,23,7,23,0.00
2013-8-27,84.5,76.1,70.8,60.7,56.6,52.4,64,51,41,0.00,0.00,16,6,16,0.27
2013-8-28,77.3,72.2,69.2,64.7,60.9,58.5,80,68,58,0.00,0.00,14,3,14,0.00
2013-8-29,76.8,70.9,65.4,64.3,62.0,59.1,83,74,63,0.00,0.00,12,4,12,0.69
2013-8-30,86.9,76.4,68.1,64.0,61.0,58.3,73,60,42,0.00,0.00,9,1,9,0.00
2013-8-31,94.8,81.3,70.5,62.5,58.1,52.5,65,47,29,0.00,0.00,11,2,11,0.00
2013-9-1,95.0,83.3,72.5,61.9,54.8,47.6,57,39,23,0.00,0.00,12,4,12,0.00
2013-9-2,92.6,80.9,71.2,62.2,54.6,47.8,67,41,30,0.00,0.00,28,7,28,0.57
2013-9-3,90.5,80.8,73.4,61.2,54.4,47.3,55,41,26,0.00,0.00,18,5,18,0.00
2013-9-4,89.7,79.8,72.1,57.7,52.4,49.1,48,39,29,0.00,0.00,17,4,17,0.00
2013-9-5,91.0,81.1,73.5,55.5,50.7,44.5,48,36,25,0.00,0.00,23,6,23,0.00
2013-9-6,91.0,81.2,73.9,57.8,54.0,51.6,48,40,29,0.00,0.00,21,6,21,0.00
2013-9-7,89.4,80.0,73.0,56.8,53.4,48.6,51,40,31,0.00,0.00,23,7,23,0.00
2013-9-8,90.3,80.3,72.6,57.1,52.9,47.9,51,40,28,0.00,0.00,22,6,22,0.00
2013-9-9,87.9,75.9,69.6,60.9,55.9,51.5,61,51,38,0.00,0.00,29,10,29,0.00
2013-9-10,75.3,69.2,66.3,62.8,60.3,58.1,81,74,60,0.00,0.00,18,6,18,0.71
2013-9-11,79.3,70.8,66.5,67.5,62.8,60.3,84,76,61,0.00,0.00,21,5,21,0.53
2013-9-12,68.5,66.3,63.6,62.1,60.0,56.3,87,80,71,0.00,0.00,28,9,28,2.35
2013-9-13,72.6,67.8,64.0,61.9,58.9,54.9,82,73,60,0.00,0.00,26,10,26,0.14
2013-9-14,82.2,73.0,66.7,58.9,54.7,52.1,63,53,39,0.00,0.00,21,7,21,0.00
2013-9-15,84.2,74.5,68.5,59.7,54.4,50.4,55,50,39,0.00,0.00,19,7,19,0.00
2013-9-16,82.0,72.7,64.9,60.9,56.9,53.2,68,58,47,0.00,0.00,28,9,28,0.00
2013-9-17,84.7,73.4,66.3,61.3,58.3,54.5,75,60,44,0.00,0.00,22,7,22,0.00
2013-9-18,85.1,74.0,66.3,62.5,58.1,55.5,72,59,42,0.00,0.00,22,7,22,0.00
2013-9-19,85.1,74.2,68.1,64.0,59.9,57.1,73,62,47,0.00,0.00,22,7,22,0.00
2013-9-20,80.9,72.6,66.2,60.7,56.9,52.8,72,59,41,0.00,0.00,25,5,25,0.00
2013-9-21,78.4,69.6,62.2,57.0,53.8,50.1,74,58,42,0.00,0.00,29,8,29,0.00
2013-9-22,77.1,68.1,63.6,55.9,50.6,49.2,60,54,47,0.00,0.00,16,8,16,0.00
2013-10-3,81.7,76.1,72.1,40.9,36.2,34.3,26,24,21,32.81,32.81,11,3,0,0.00
2013-10-4,81.1,71.0,62.8,45.1,40.2,34.8,49,34,21,32.81,32.81,22,4,0,0.00
2013-10-5,70.3,63.0,56.3,37.3,26.6,19.7,36,26,20,32.81,32.81,28,6,0,0.00
2013-10-6,74.7,65.8,55.9,35.1,30.2,21.7,36,27,23,32.81,32.81,10,2,0,0.00
2013-10-7,76.8,67.8,58.6,36.9,31.3,25.4,35,26,23,32.81,32.81,15,5,0,0.00
2013-10-8,82.9,71.9,64.0,43.9,35.4,26.7,38,27,22,32.81,32.81,18,5,0,0.00
2013-10-9,82.9,71.8,61.9,45.7,38.9,33.0,40,31,24,32.81,32.81,17,3,0,0.00
2013-10-10,79.2,70.2,59.7,47.3,40.2,32.8,49,35,24,32.81,32.81,24,8,0,0.00
2013-10-11,75.6,63.5,55.2,42.0,36.7,32.4,50,38,29,32.81,32.81,22,4,0,0.00
2013-10-12,79.2,67.5,56.7,43.5,39.2,35.4,50,36,27,32.81,32.81,31,4,0,0.00
2013-10-13,78.4,71.1,65.3,53.7,48.0,40.8,60,45,33,32.81,32.81,26,7,0,0.00
2013-10-14,72.3,69.1,65.8,48.7,46.6,45.2,52,45,41,32.81,32.81,18,4,0,0.00
2013-10-15,73.9,66.0,56.1,54.5,48.8,44.9,66,54,47,32.81,32.81,33,6,0,0.00
2013-10-16,71.2,61.2,53.2,48.9,38.6,23.8,76,48,22,32.81,32.81,32,8,0,0.00
2013-10-17,73.9,62.5,54.5,33.7,26.3,12.3,38,26,10,32.81,29.84,11,2,13,0.00
2013-10-18,75.7,64.0,55.4,30.5,18.9,11.3,36,17,10,34.67,29.83,18,4,29,0.00
2013-10-19,74.5,59.4,49.5,33.6,25.9,12.6,50,30,11,30.30,29.91,21,4,28,0.00
2013-10-20,77.2,64.4,53.6,32.3,20.4,10.2,37,20,10,30.08,29.74,15,2,21,0.00
2013-10-21,69.6,60.4,53.8,35.5,24.2,9.4,43,26,14,30.18,29.91,15,6,24,0.00
2013-10-22,72.3,62.2,53.6,40.9,33.1,18.6,57,36,14,30.29,30.02,15,5,22,0.00
2013-10-23,78.3,67.4,58.5,34.7,28.8,22.6,37,24,16,30.17,29.90,14,6,21,0.00
2013-10-24,80.8,69.9,63.1,39.6,35.5,30.2,34,28,21,30.12,29.86,18,8,27,0.00
2013-10-25,79.0,68.3,61.0,43.3,38.4,30.0,48,34,22,30.15,29.91,21,9,35,0.00
2013-10-26,76.6,64.3,52.2,47.4,39.1,23.6,76,43,16,30.27,30.01,13,4,24,0.00
2013-10-27,75.2,65.2,57.0,42.8,38.8,36.7,48,38,28,30.19,29.82,14,6,21,0.00
2013-10-28,76.3,68.6,60.6,43.5,28.3,10.8,48,25,10,29.98,29.77,15,2,20,0.00
2013-10-29,70.9,66.5,63.5,34.4,21.6,9.7,32,19,10,30.04,29.83,9,1,13,0.00
2013-10-30,67.6,61.3,52.7,48.0,42.2,30.4,64,50,33,30.06,29.80,17,4,27,0.00
2013-10-31,68.9,55.7,44.4,30.7,18.5,8.0,43,25,10,30.24,29.91,11,3,20,0.00
2013-11-1,69.1,57.5,45.3,22.9,16.7,8.3,34,21,13,30.27,30.02,13,2,23,0.00
2013-11-2,70.0,61.6,54.3,21.1,16.5,10.9,25,18,10,30.33,30.01,21,7,32,0.00
2013-11-3,76.8,64.0,53.1,45.5,27.7,15.7,56,27,14,30.05,29.69,17,4,25,0.00
2013-11-4,73.9,62.3,51.6,52.7,47.1,40.2,85,59,36,29.99,29.69,11,2,18,0.00
2013-11-5,67.5,59.6,54.5,46.9,39.6,22.1,64,48,29,30.19,29.83,16,3,24,0.00
2013-11-6,70.0,54.6,43.9,28.4,17.8,8.5,46,25,13,30.46,30.19,15,3,22,0.00
2013-11-7,68.0,56.4,43.7,22.2,14.0,2.1,28,19,12,30.53,30.20,23,6,36,0.00
2013-11-8,74.8,59.7,50.5,44.5,36.1,21.9,60,42,28,30.31,29.93,15,3,23,0.00
2013-11-9,78.1,62.4,51.4,49.6,36.2,19.1,82,44,14,30.25,29.95,4,1,8,0.00
2013-11-10,77.9,65.2,54.9,38.3,29.6,21.2,39,27,14,30.30,30.00,11,2,17,0.00
2013-11-11,76.6,67.4,58.1,41.7,36.3,27.7,43,32,22,30.25,30.00,14,4,20,0.00
2013-11-12,66.0,54.0,43.9,44.5,40.0,37.4,80,60,38,30.65,30.19,27,16,37,0.00
2013-11-13,58.8,49.4,43.2,42.0,39.5,36.8,83,69,52,30.62,30.23,23,11,36,0.00
2013-11-14,70.0,57.1,46.2,46.7,42.9,39.7,88,61,36,30.23,29.88,10,1,19,0.00
2013-11-15,69.4,60.1,54.5,50.4,45.7,41.5,84,60,43,30.00,29.73,13,3,21,0.04
2013-11-16,73.2,61.7,54.1,49.4,45.6,37.9,79,58,30,29.93,29.64,15,5,23,0.05
2013-11-17,70.3,58.6,50.0,45.2,40.7,35.5,77,53,32,30.16,29.93,15,4,22,0.00
2013-11-18,72.3,61.2,52.2,41.2,37.0,32.7,53,41,28,30.24,29.98,11,2,16,0.00
2013-11-19,73.0,63.0,53.4,44.9,40.5,37.1,62,44,31,30.11,29.81,9,1,15,0.00
2013-11-20,70.3,61.3,53.2,43.8,39.9,30.8,59,46,32,29.99,29.76,11,1,15,0.00
2013-11-21,73.8,63.3,54.1,43.4,37.9,31.9,59,40,27,30.06,29.85,15,3,25,0.00
2013-11-22,62.6,40.6,32.2,38.7,29.8,23.5,77,66,33,30.53,29.99,35,21,49,0.00
2013-11-23,36.9,30.5,28.8,29.6,18.5,-99.9,92,74,63,30.60,30.40,30,-42,47,0.00
2013-11-24,31.8,29.0,26.4,29.8,25.6,21.6,92,87,81,30.59,30.42,26,8,38,0.00
2013-11-25,46.8,35.9,30.2,36.0,30.9,27.9,96,83,60,30.52,30.24,8,1,12,0.07
2013-11-26,54.3,42.8,33.1,32.6,26.0,20.9,81,53,28,30.64,30.39,14,2,20,0.00
2013-11-27,47.5,41.9,36.5,25.3,22.2,16.5,57,46,31,30.59,30.31,12,5,17,0.00
2013-11-28,62.8,48.9,36.7,29.3,24.4,21.2,61,39,22,30.43,30.12,14,3,21,0.00
2013-11-29,68.0,54.2,42.3,35.9,31.5,26.0,59,43,29,30.44,30.14,17,3,21,0.00
2013-11-30,68.9,55.9,47.3,40.1,36.5,31.2,66,49,31,30.38,30.07,6,0,8,0.00
2013-12-1,59.9,54.8,50.2,43.5,38.1,28.1,68,54,32,30.31,30.16,4,0,5,0.00
2013-12-2,69.6,54.1,39.7,38.9,25.5,11.2,76,39,13,30.29,29.84,6,1,10,0.00
2013-12-3,71.1,58.6,48.2,40.0,19.9,10.2,54,25,11,29.97,29.64,17,3,22,0.00
2013-12-4,66.7,58.2,52.3,45.9,38.3,29.0,71,49,28,29.94,29.69,23,7,36,0.00
2013-12-5,54.9,48.2,40.5,46.1,41.1,36.1,98,78,51,30.15,29.84,15,4,23,0.18
2013-12-6,52.3,41.9,33.8,35.3,28.5,22.6,84,61,35,30.33,30.12,18,5,29,0.00
2013-12-7,46.6,37.1,30.0,36.7,31.4,26.0,99,82,48,30.37,30.03,28,12,41,0.00
2013-12-8,55.6,44.8,37.2,29.2,21.8,10.7,63,42,21,30.18,29.96,16,3,25,0.00
2013-12-9,54.5,43.3,34.9,32.2,19.9,-3.7,74,44,18,30.55,30.10,15,4,25,0.00
2013-12-10,52.9,37.1,24.1,10.6,0.9,-10.4,33,21,16,30.71,30.24,4,1,8,0.00
2013-12-11,54.0,43.2,32.0,21.7,9.0,-5.0,39,25,17,30.60,30.36,17,5,25,0.00
2013-12-12,49.6,41.8,36.5,37.5,29.6,14.2,93,65,30,30.66,30.31,17,3,25,0.01
2013-12-13,56.7,44.7,36.5,41.6,35.3,30.1,99,72,39,30.31,30.01,16,3,26,0.02
2013-12-14,56.5,45.6,38.7,33.5,24.6,14.3,78,46,21,30.51,30.21,13,3,22,0.00
2013-12-15,56.3,45.1,34.7,26.1,20.3,14.3,58,39,21,30.58,30.28,8,1,11,0.00
2013-12-16,63.3,48.8,34.9,23.9,19.8,13.8,54,33,18,30.54,30.20,8,1,11,0.00
2013-12-17,66.4,53.9,39.0,26.7,20.2,15.2,56,28,16,30.52,30.18,5,1,8,0.00
2013-12-18,63.1,53.0,44.8,28.1,20.9,13.0,41,29,19,30.34,30.00,3,0,6,0.00
2013-12-19,70.3,58.0,50.4,21.2,16.5,9.4,31,20,10,30.01,29.63,15,2,19,0.00
2013-12-20,57.6,50.5,37.6,46.1,33.4,11.3,92,57,18,29.92,29.63,11,3,17,0.01
2013-12-21,43.7,38.4,32.5,33.7,31.3,28.0,99,76,58,30.16,29.86,19,8,29,0.01
2013-12-22,53.1,42.6,35.6,30.9,24.7,14.0,75,52,22,30.45,30.14,10,2,15,0.00
2013-12-23,57.2,44.0,34.3,28.1,20.3,11.9,64,41,19,30.62,30.36,6,1,8,0.00
2013-12-24,61.0,47.3,36.9,25.5,21.2,10.4,51,36,23,30.54,30.15,8,1,18,0.00
2013-12-25,53.6,45.0,38.7,29.4,25.7,19.9,66,47,33,30.57,30.31,12,4,26,0.00
2013-12-26,55.6,43.1,34.0,28.0,24.0,20.1,66,48,29,30.60,30.27,11,2,15,0.00
2013-12-27,53.8,44.5,37.4,25.8,22.5,18.4,53,42,28,30.52,30.29,9,1,12,0.00
2013-12-28,54.9,46.3,37.2,29.5,25.7,21.8,62,45,32,30.38,30.00,8,1,13,0.00
2013-12-29,52.5,44.8,35.1,25.6,21.9,13.0,55,40,24,30.43,30.04,18,7,27,0.00
2013-12-30,57.6,43.1,32.4,25.1,19.5,7.1,62,41,18,30.51,30.22,9,1,13,0.00
2013-12-31,59.0,47.6,36.7,23.8,17.5,10.1,45,31,19,30.54,30.18,16,3,24,0.00
2014-1-1,63.7,51.3,40.3,26.6,18.8,10.7,48,30,15,30.29,30.04,11,2,18,0.00
2014-1-2,56.8,47.7,38.1,28.3,22.0,9.3,67,38,16,30.53,30.27,23,10,33,0.00